Time;durP1;ratioP1;P1;durP2;ratioP2;P2;SDS_P1;SDS_P2;PMS_P1;PMS_P2;Temp;Humidity;BMP_temperature;BMP_pressure;BME280_temperature;BME280_humidity;BME280_pressure;Samples;Min_cycle;Max_cycle;Signal;HPM_P1;HPM_P2
2022/09/16 00:00:28;;;;;;;4.05;1.30;;;;;;;;;;8316634;28;20038;-61
2022/09/16 00:04:28;;;;;;;2.00;1.25;;;;;;;;;;8319313;28;20059;-61
2022/09/16 00:08:28;;;;;;;3.50;1.50;;;;;;;;;;8316165;28;20674;-61
2022/09/16 00:12:29;;;;;;;2.58;1.20;;;;;;;;;;8317847;28;20159;-60
2022/09/16 00:16:29;;;;;;;4.25;1.55;;;;;;;;;;8316305;28;20037;-61
2022/09/16 00:20:29;;;;;;;5.28;1.20;;;;;;;;;;8318032;28;20041;-61
2022/09/16 00:24:29;;;;;;;2.55;1.35;;;;;;;;;;8316978;28;20090;-60
2022/09/16 00:28:29;;;;;;;3.72;1.30;;;;;;;;;;8317016;28;20529;-60
2022/09/16 00:32:30;;;;;;;2.53;1.30;;;;;;;;;;8315432;28;20316;-60
2022/09/16 00:36:30;;;;;;;3.40;1.35;;;;;;;;;;8317294;28;20047;-61
2022/09/16 00:40:30;;;;;;;3.72;1.35;;;;;;;;;;8314207;28;20018;-61
2022/09/16 00:44:48;;;;;;;3.45;1.30;;;;;;;;;;8317289;28;20025;-60
2022/09/16 00:48:49;;;;;;;5.30;1.60;;;;;;;;;;8316348;28;20068;-60
2022/09/16 00:52:51;;;;;;;1.93;1.20;;;;;;;;;;8310910;28;20028;-61
2022/09/16 00:56:52;;;;;;;2.38;1.33;;;;;;;;;;8318704;28;20268;-61
2022/09/16 01:00:53;;;;;;;3.17;1.45;;;;;;;;;;8312595;28;20782;-61
2022/09/16 01:05:05;;;;;;;5.10;1.60;;;;;;;;;;8316707;28;20052;-60
2022/09/16 01:09:06;;;;;;;4.28;1.30;;;;;;;;;;8313809;28;20025;-61
2022/09/16 01:13:07;;;;;;;3.25;1.58;;;;;;;;;;8313958;28;20465;-61
2022/09/16 01:17:12;;;;;;;2.65;1.20;;;;;;;;;;8329768;28;20505;-60
2022/09/16 01:21:21;;;;;;;1.40;1.17;;;;;;;;;;8317085;28;20647;-60
2022/09/16 01:25:27;;;;;;;4.05;1.30;;;;;;;;;;8316216;28;20033;-60
2022/09/16 01:29:46;;;;;;;3.88;1.35;;;;;;;;;;8315936;28;20039;-61
2022/09/16 01:33:49;;;;;;;3.00;1.20;;;;;;;;;;8311963;28;20587;-60
2022/09/16 01:37:52;;;;;;;3.03;1.20;;;;;;;;;;8314291;28;20382;-60
2022/09/16 01:42:11;;;;;;;2.72;1.25;;;;;;;;;;8314680;28;20245;-61
2022/09/16 01:46:14;;;;;;;3.25;1.17;;;;;;;;;;8311644;28;20465;-61
2022/09/16 01:50:38;;;;;;;2.07;1.30;;;;;;;;;;8315853;28;20071;-61
2022/09/16 01:54:40;;;;;;;5.85;1.30;;;;;;;;;;8304305;28;20410;-60
2022/09/16 01:58:56;;;;;;;5.63;1.67;;;;;;;;;;8313166;28;20155;-61
2022/09/16 02:03:11;;;;;;;6.47;1.25;;;;;;;;;;8315602;28;20484;-61
2022/09/16 02:07:13;;;;;;;3.35;1.40;;;;;;;;;;8314784;28;20833;-60
2022/09/16 02:11:14;;;;;;;2.95;1.27;;;;;;;;;;8312619;28;20320;-61
2022/09/16 02:15:20;;;;;;;3.95;1.40;;;;;;;;;;8313278;28;20021;-61
2022/09/16 02:19:23;;;;;;;3.72;1.30;;;;;;;;;;8312981;28;20030;-61
2022/09/16 02:23:26;;;;;;;7.32;1.38;;;;;;;;;;8311513;28;20546;-61
2022/09/16 02:27:28;;;;;;;5.07;1.63;;;;;;;;;;8311516;28;20028;-61
2022/09/16 02:31:33;;;;;;;4.05;1.42;;;;;;;;;;8310000;28;20135;-60
2022/09/16 02:35:35;;;;;;;5.80;1.67;;;;;;;;;;8311031;28;20116;-61
2022/09/16 02:39:37;;;;;;;3.70;1.50;;;;;;;;;;8313778;28;20564;-61
2022/09/16 02:43:37;;;;;;;4.07;1.48;;;;;;;;;;8311564;28;20025;-62
2022/09/16 02:47:59;;;;;;;3.90;1.45;;;;;;;;;;8310408;28;20544;-60
2022/09/16 02:52:02;;;;;;;4.70;1.60;;;;;;;;;;8308054;28;20045;-61
2022/09/16 02:56:05;;;;;;;5.50;1.77;;;;;;;;;;8312207;28;20689;-60
2022/09/16 03:00:05;;;;;;;3.13;1.60;;;;;;;;;;8309363;28;20051;-61
2022/09/16 03:04:06;;;;;;;7.85;1.60;;;;;;;;;;8313988;28;20661;-61
2022/09/16 03:08:06;;;;;;;4.30;1.30;;;;;;;;;;8310185;28;20753;-61
2022/09/16 03:12:19;;;;;;;6.93;1.50;;;;;;;;;;8309958;28;20086;-60
2022/09/16 03:16:35;;;;;;;2.70;1.60;;;;;;;;;;8311681;28;20081;-60
2022/09/16 03:20:51;;;;;;;7.00;1.83;;;;;;;;;;8316732;28;20021;-61
2022/09/16 03:24:57;;;;;;;3.25;1.80;;;;;;;;;;8315930;28;20340;-60
2022/09/16 03:29:04;;;;;;;4.22;1.63;;;;;;;;;;8318383;28;20067;-61
2022/09/16 03:33:08;;;;;;;4.88;1.55;;;;;;;;;;8317683;28;20041;-61
2022/09/16 03:37:11;;;;;;;4.72;1.52;;;;;;;;;;8319772;28;20070;-60
2022/09/16 03:41:12;;;;;;;9.00;1.83;;;;;;;;;;8318352;28;20402;-60
2022/09/16 03:45:17;;;;;;;6.88;1.60;;;;;;;;;;8327341;28;20024;-61
2022/09/16 03:49:17;;;;;;;5.20;1.50;;;;;;;;;;8326611;28;20106;-60
2022/09/16 03:53:18;;;;;;;6.75;1.52;;;;;;;;;;8329201;28;20024;-61
2022/09/16 03:57:18;;;;;;;5.35;1.70;;;;;;;;;;8329141;28;20583;-61
2022/09/16 04:01:19;;;;;;;8.73;2.10;;;;;;;;;;8324064;28;20132;-61
2022/09/16 04:05:19;;;;;;;5.43;1.50;;;;;;;;;;8323958;28;20025;-61
2022/09/16 04:09:19;;;;;;;4.50;1.50;;;;;;;;;;8322290;28;20872;-61
2022/09/16 04:13:20;;;;;;;4.35;1.60;;;;;;;;;;8322874;28;20028;-60
2022/09/16 04:17:20;;;;;;;6.18;1.30;;;;;;;;;;8324278;28;20834;-60
2022/09/16 04:21:20;;;;;;;7.18;1.52;;;;;;;;;;8322877;28;20043;-61
2022/09/16 04:25:20;;;;;;;2.97;1.20;;;;;;;;;;8322368;28;20029;-60
2022/09/16 04:29:20;;;;;;;9.23;1.55;;;;;;;;;;8323637;28;20642;-61
2022/09/16 04:33:21;;;;;;;3.30;1.47;;;;;;;;;;8323825;28;20042;-61
2022/09/16 04:37:21;;;;;;;5.85;1.10;;;;;;;;;;8320578;28;20090;-60
2022/09/16 04:41:22;;;;;;;9.90;1.30;;;;;;;;;;8325369;28;20033;-60
2022/09/16 04:45:23;;;;;;;5.65;1.40;;;;;;;;;;8325531;28;20029;-60
2022/09/16 04:49:23;;;;;;;3.08;1.33;;;;;;;;;;8322543;28;20037;-61
2022/09/16 04:53:23;;;;;;;5.97;1.60;;;;;;;;;;8323361;28;20230;-61
2022/09/16 04:57:23;;;;;;;3.15;1.35;;;;;;;;;;8324851;28;20060;-61
2022/09/16 05:01:24;;;;;;;2.92;1.13;;;;;;;;;;8321787;28;20033;-61
2022/09/16 05:05:24;;;;;;;2.92;1.20;;;;;;;;;;8321630;28;20033;-61
2022/09/16 05:09:25;;;;;;;5.28;1.65;;;;;;;;;;8322820;28;20090;-61
2022/09/16 05:13:25;;;;;;;3.07;1.20;;;;;;;;;;8321695;28;20048;-61
2022/09/16 05:17:27;;;;;;;7.10;1.42;;;;;;;;;;8318357;28;20075;-61
2022/09/16 05:21:28;;;;;;;6.82;1.52;;;;;;;;;;8320066;28;20033;-61
2022/09/16 05:25:28;;;;;;;7.28;1.58;;;;;;;;;;8321470;28;20224;-61
2022/09/16 05:29:28;;;;;;;5.45;1.60;;;;;;;;;;8313507;28;20029;-60
2022/09/16 05:33:28;;;;;;;5.57;1.40;;;;;;;;;;8311343;28;20041;-60
2022/09/16 05:37:28;;;;;;;4.68;1.70;;;;;;;;;;8308765;28;20071;-60
2022/09/16 05:41:29;;;;;;;5.75;1.35;;;;;;;;;;8311547;28;20060;-60
2022/09/16 05:45:29;;;;;;;5.13;1.60;;;;;;;;;;8316769;28;20745;-60
2022/09/16 05:49:29;;;;;;;8.73;1.55;;;;;;;;;;8310205;28;20599;-61
2022/09/16 05:53:30;;;;;;;6.75;1.40;;;;;;;;;;8308391;28;20490;-60
2022/09/16 05:57:31;;;;;;;5.78;1.50;;;;;;;;;;8312606;28;20488;-60
2022/09/16 06:01:32;;;;;;;4.93;1.65;;;;;;;;;;8309592;28;20131;-60
2022/09/16 06:05:33;;;;;;;7.15;1.42;;;;;;;;;;8313759;28;20409;-60
2022/09/16 06:09:33;;;;;;;4.82;1.58;;;;;;;;;;8317234;28;20025;-60
2022/09/16 06:13:33;;;;;;;7.47;1.50;;;;;;;;;;8314905;28;20489;-60
2022/09/16 06:17:34;;;;;;;4.18;1.40;;;;;;;;;;8313450;28;20056;-60
2022/09/16 06:21:34;;;;;;;7.93;1.67;;;;;;;;;;8316323;28;20556;-60
2022/09/16 06:25:34;;;;;;;8.90;1.90;;;;;;;;;;8314692;28;20040;-62
2022/09/16 06:29:35;;;;;;;9.25;2.10;;;;;;;;;;8315753;28;20029;-60
2022/09/16 06:33:35;;;;;;;7.00;1.70;;;;;;;;;;8310386;28;20057;-60
2022/09/16 06:37:35;;;;;;;7.07;1.55;;;;;;;;;;8313377;28;20041;-60
2022/09/16 06:41:36;;;;;;;4.88;1.55;;;;;;;;;;8312832;28;20669;-60
2022/09/16 06:45:36;;;;;;;5.07;1.20;;;;;;;;;;8309360;28;20029;-60
2022/09/16 06:49:36;;;;;;;5.45;1.33;;;;;;;;;;8314961;28;20099;-60
2022/09/16 06:53:37;;;;;;;5.25;1.45;;;;;;;;;;8318963;28;20035;-60
2022/09/16 06:57:37;;;;;;;7.43;1.40;;;;;;;;;;8321824;28;20017;-61
2022/09/16 07:01:38;;;;;;;5.03;1.48;;;;;;;;;;8319185;28;20465;-60
2022/09/16 07:05:38;;;;;;;5.60;1.20;;;;;;;;;;8320806;28;20033;-61
2022/09/16 07:09:38;;;;;;;4.30;1.30;;;;;;;;;;8318390;28;20032;-60
2022/09/16 07:13:39;;;;;;;5.30;1.58;;;;;;;;;;8319236;28;20533;-60
2022/09/16 07:17:39;;;;;;;5.35;1.20;;;;;;;;;;8318899;28;20412;-61
2022/09/16 07:21:40;;;;;;;8.85;1.50;;;;;;;;;;8319403;28;20021;-61
2022/09/16 07:25:40;;;;;;;5.13;1.17;;;;;;;;;;8322625;28;20025;-61
2022/09/16 07:29:41;;;;;;;4.72;1.25;;;;;;;;;;8318433;28;20518;-59
2022/09/16 07:33:42;;;;;;;2.75;1.20;;;;;;;;;;8321589;28;20538;-60
2022/09/16 07:37:42;;;;;;;3.90;1.40;;;;;;;;;;8318667;28;20029;-61
2022/09/16 07:41:44;;;;;;;4.33;1.10;;;;;;;;;;8319953;28;20449;-61
2022/09/16 07:45:44;;;;;;;4.88;1.48;;;;;;;;;;8316011;28;20153;-61
2022/09/16 07:49:45;;;;;;;6.07;1.27;;;;;;;;;;8316579;28;20056;-61
2022/09/16 07:53:45;;;;;;;5.07;1.20;;;;;;;;;;8320343;28;20028;-61
2022/09/16 07:57:46;;;;;;;6.93;1.60;;;;;;;;;;8318770;28;20028;-61
2022/09/16 08:01:48;;;;;;;4.35;1.23;;;;;;;;;;8316498;28;20563;-61
2022/09/16 08:05:49;;;;;;;4.80;1.40;;;;;;;;;;8318985;28;20132;-60
2022/09/16 08:09:49;;;;;;;5.63;1.50;;;;;;;;;;8317486;28;20904;-61
2022/09/16 08:13:49;;;;;;;6.80;1.38;;;;;;;;;;8319134;28;20017;-60
2022/09/16 08:17:49;;;;;;;5.43;1.10;;;;;;;;;;8318320;28;20037;-60
2022/09/16 08:21:50;;;;;;;2.42;0.82;;;;;;;;;;8317393;28;20598;-60
2022/09/16 08:25:57;;;;;;;4.22;1.30;;;;;;;;;;8318683;28;20553;-61
2022/09/16 08:29:57;;;;;;;4.45;1.10;;;;;;;;;;8315670;28;20487;-61
2022/09/16 08:33:58;;;;;;;3.53;1.10;;;;;;;;;;8314714;28;20037;-61
2022/09/16 08:37:58;;;;;;;2.87;1.10;;;;;;;;;;8316135;28;20530;-61
2022/09/16 08:42:17;;;;;;;4.80;1.38;;;;;;;;;;8315950;28;21109;-61
2022/09/16 08:46:23;;;;;;;2.58;1.13;;;;;;;;;;8316227;28;20044;-61
2022/09/16 08:50:25;;;;;;;2.88;0.98;;;;;;;;;;8318205;28;20519;-61
2022/09/16 08:54:26;;;;;;;2.50;1.02;;;;;;;;;;8315169;28;20491;-61
2022/09/16 08:58:29;;;;;;;2.53;1.05;;;;;;;;;;8316682;28;20108;-60
2022/09/16 09:02:30;;;;;;;;;;;;;;;;;;8314649;28;20501;-60
2022/09/16 09:06:32;;;;;;;3.72;0.95;;;;;;;;;;8316698;28;19912;-60
2022/09/16 09:10:41;;;;;;;6.07;1.30;;;;;;;;;;8317730;28;20500;-61
2022/09/16 09:15:00;;;;;;;3.72;1.00;;;;;;;;;;8314880;28;20046;-62
2022/09/16 09:19:00;;;;;;;3.20;0.90;;;;;;;;;;8315577;28;20044;-61
2022/09/16 09:23:19;;;;;;;2.72;0.80;;;;;;;;;;8320356;28;20032;-61
2022/09/16 09:27:22;;;;;;;8.00;1.02;;;;;;;;;;8329101;28;20883;-61
2022/09/16 09:31:41;;;;;;;3.05;0.88;;;;;;;;;;8321866;28;20595;-61
2022/09/16 09:35:50;;;;;;;3.63;0.80;;;;;;;;;;8325473;28;20077;-61
2022/09/16 09:39:54;;;;;;;2.55;0.80;;;;;;;;;;8317285;28;20025;-62
2022/09/16 09:44:17;;;;;;;3.70;0.95;;;;;;;;;;8322991;28;20025;-61
2022/09/16 09:48:23;;;;;;;2.13;0.77;;;;;;;;;;8322012;28;20055;-60
2022/09/16 09:52:23;;;;;;;3.28;1.38;;;;;;;;;;8318557;28;20039;-61
2022/09/16 09:56:26;;;;;;;1.80;0.80;;;;;;;;;;8318765;28;20131;-60
2022/09/16 10:00:26;;;;;;;3.63;1.20;;;;;;;;;;8321172;28;20831;-61
2022/09/16 10:04:35;;;;;;;3.25;0.98;;;;;;;;;;8320417;28;20504;-61
2022/09/16 10:08:40;;;;;;;1.55;0.80;;;;;;;;;;8319401;28;20025;-62
2022/09/16 10:12:40;;;;;;;1.45;0.85;;;;;;;;;;8321878;28;20406;-60
2022/09/16 10:16:45;;;;;;;1.88;0.90;;;;;;;;;;8315826;28;20401;-61
2022/09/16 10:20:53;;;;;;;2.20;0.93;;;;;;;;;;8315850;28;20090;-61
2022/09/16 10:25:17;;;;;;;3.80;1.00;;;;;;;;;;8315672;28;20461;-61
2022/09/16 10:29:20;;;;;;;3.70;0.90;;;;;;;;;;8322516;28;20147;-61
2022/09/16 10:33:25;;;;;;;1.30;0.70;;;;;;;;;;8319270;28;20703;-61
2022/09/16 10:37:26;;;;;;;4.65;0.90;;;;;;;;;;8318487;28;20236;-61
2022/09/16 10:41:45;;;;;;;8.30;1.00;;;;;;;;;;8320998;28;20040;-61
2022/09/16 10:45:47;;;;;;;2.08;0.98;;;;;;;;;;8319080;28;20143;-61
2022/09/16 10:49:49;;;;;;;4.50;1.05;;;;;;;;;;8320395;28;20035;-61
2022/09/16 10:53:52;;;;;;;5.80;0.95;;;;;;;;;;8316024;28;20025;-61
2022/09/16 10:57:53;;;;;;;3.38;1.00;;;;;;;;;;8317930;28;20081;-61
2022/09/16 11:01:53;;;;;;;3.28;1.10;;;;;;;;;;8321053;28;20128;-61
2022/09/16 11:05:59;;;;;;;3.45;1.13;;;;;;;;;;8319977;28;20497;-61
2022/09/16 11:10:18;;;;;;;3.90;0.90;;;;;;;;;;8318151;28;20021;-61
2022/09/16 11:14:33;;;;;;;5.03;0.80;;;;;;;;;;8320934;28;20037;-61
2022/09/16 11:18:49;;;;;;;2.63;0.90;;;;;;;;;;8315870;28;20525;-61
2022/09/16 11:22:59;;;;;;;5.55;1.00;;;;;;;;;;8317659;28;20029;-61
2022/09/16 11:27:11;;;;;;;4.22;0.93;;;;;;;;;;8318333;28;20384;-62
2022/09/16 11:31:27;;;;;;;2.63;0.80;;;;;;;;;;8315940;28;20102;-61
2022/09/16 11:35:27;;;;;;;2.30;1.02;;;;;;;;;;8319431;28;20500;-60
2022/09/16 11:39:48;;;;;;;1.65;0.70;;;;;;;;;;8315217;28;20407;-60
2022/09/16 11:44:14;;;;;;;4.57;0.80;;;;;;;;;;8314481;28;20443;-61
2022/09/16 11:48:24;;;;;;;4.03;1.08;;;;;;;;;;8315523;28;20151;-60
2022/09/16 11:52:35;;;;;;;2.97;0.88;;;;;;;;;;8315234;28;20560;-61
2022/09/16 11:56:44;;;;;;;0.80;0.80;;;;;;;;;;8316435;28;20374;-60
2022/09/16 12:00:45;;;;;;;2.83;0.68;;;;;;;;;;8315816;28;20042;-61
2022/09/16 12:04:52;;;;;;;3.95;0.80;;;;;;;;;;8315380;28;20320;-60
2022/09/16 12:08:56;;;;;;;1.83;0.70;;;;;;;;;;8317091;28;20029;-60
2022/09/16 12:12:56;;;;;;;;;;;;;;;;;;8314701;28;20032;-60
2022/09/16 12:17:22;;;;;;;1.07;0.60;;;;;;;;;;8314962;28;19920;-60
2022/09/16 12:21:25;;;;;;;6.03;0.90;;;;;;;;;;8308214;28;20587;-60
2022/09/16 12:25:39;;;;;;;4.57;0.90;;;;;;;;;;8272156;28;1210116;-60
2022/09/16 12:29:49;;;;;;;3.10;0.80;;;;;;;;;;8313891;28;20051;-61
2022/09/16 12:33:53;;;;;;;5.43;0.80;;;;;;;;;;8312847;28;20080;-61
2022/09/16 12:37:53;;;;;;;3.85;0.73;;;;;;;;;;8313812;28;20071;-61
2022/09/16 12:42:09;;;;;;;5.88;1.00;;;;;;;;;;8322169;28;20094;-61
2022/09/16 12:46:12;;;;;;;1.20;0.65;;;;;;;;;;8321334;28;20047;-60
2022/09/16 12:50:22;;;;;;;1.90;0.67;;;;;;;;;;8323286;28;20072;-60
2022/09/16 12:54:41;;;;;;;3.78;0.75;;;;;;;;;;8322091;28;20024;-62
2022/09/16 12:59:00;;;;;;;0.73;0.65;;;;;;;;;;8322768;28;20020;-62
2022/09/16 13:03:21;;;;;;;0.93;0.60;;;;;;;;;;8319520;28;20036;-62
2022/09/16 13:07:26;;;;;;;2.55;0.90;;;;;;;;;;8320173;28;20021;-61
2022/09/16 13:11:27;;;;;;;2.25;0.80;;;;;;;;;;8321121;28;20083;-61
2022/09/16 13:15:29;;;;;;;2.78;0.98;;;;;;;;;;8321623;28;20089;-61
2022/09/16 13:19:29;;;;;;;1.40;0.57;;;;;;;;;;8320152;28;20028;-60
2022/09/16 13:23:32;;;;;;;1.50;0.60;;;;;;;;;;8319409;28;20119;-61
2022/09/16 13:27:34;;;;;;;1.95;0.40;;;;;;;;;;8322321;28;20041;-61
2022/09/16 13:31:45;;;;;;;1.58;0.50;;;;;;;;;;8321281;28;20043;-60
2022/09/16 13:35:48;;;;;;;0.40;0.40;;;;;;;;;;8325220;28;20056;-61
2022/09/16 13:39:48;;;;;;;2.00;0.65;;;;;;;;;;8320135;28;20089;-60
2022/09/16 13:43:50;;;;;;;0.87;0.60;;;;;;;;;;8324897;28;20033;-61
2022/09/16 13:47:50;;;;;;;1.05;0.73;;;;;;;;;;8321870;28;20210;-61
2022/09/16 13:51:51;;;;;;;0.52;0.50;;;;;;;;;;8324509;28;20063;-60
2022/09/16 13:55:54;;;;;;;0.73;0.50;;;;;;;;;;8326675;28;20576;-61
2022/09/16 14:00:01;;;;;;;2.47;0.70;;;;;;;;;;8322088;28;20016;-60
2022/09/16 14:04:24;;;;;;;0.73;0.60;;;;;;;;;;8320858;28;20606;-61
2022/09/16 14:08:30;;;;;;;1.83;0.70;;;;;;;;;;8311447;28;20068;-60
2022/09/16 14:12:37;;;;;;;1.55;0.70;;;;;;;;;;8319525;28;20283;-60
2022/09/16 14:16:39;;;;;;;3.40;0.50;;;;;;;;;;8314674;28;20779;-61
2022/09/16 14:20:51;;;;;;;1.58;0.70;;;;;;;;;;8317581;28;20477;-60
2022/09/16 14:24:52;;;;;;;2.15;0.68;;;;;;;;;;8327524;28;20056;-60
2022/09/16 14:29:00;;;;;;;3.05;0.70;;;;;;;;;;8318553;28;20025;-60
2022/09/16 14:33:01;;;;;;;1.63;0.57;;;;;;;;;;8317961;28;20045;-61
2022/09/16 14:37:02;;;;;;;1.08;0.52;;;;;;;;;;8320276;28;20836;-61
2022/09/16 14:41:07;;;;;;;2.88;0.70;;;;;;;;;;8319316;28;20032;-60
2022/09/16 14:45:15;;;;;;;3.10;0.68;;;;;;;;;;8322119;28;20025;-61
2022/09/16 14:49:16;;;;;;;1.38;0.50;;;;;;;;;;8320891;28;20079;-60
2022/09/16 14:53:37;;;;;;;1.25;0.50;;;;;;;;;;8317161;28;20021;-61
2022/09/16 14:57:38;;;;;;;2.72;0.50;;;;;;;;;;8320181;28;20485;-61
2022/09/16 15:01:38;;;;;;;0.75;0.50;;;;;;;;;;8320322;28;20094;-61
2022/09/16 15:05:40;;;;;;;1.38;0.50;;;;;;;;;;8321383;28;20583;-60
2022/09/16 15:09:48;;;;;;;1.75;0.80;;;;;;;;;;8317055;28;20030;-60
2022/09/16 15:13:50;;;;;;;3.38;0.65;;;;;;;;;;8319941;28;20028;-61
2022/09/16 15:17:55;;;;;;;0.73;0.50;;;;;;;;;;8325824;28;20054;-67
2022/09/16 15:21:55;;;;;;;1.55;0.70;;;;;;;;;;8319257;28;20021;-60
2022/09/16 15:25:58;;;;;;;1.40;0.60;;;;;;;;;;8317653;28;21393;-60
2022/09/16 15:29:59;;;;;;;2.25;0.60;;;;;;;;;;8319598;28;20104;-61
2022/09/16 15:34:01;;;;;;;2.28;0.70;;;;;;;;;;8322120;28;20044;-60
2022/09/16 15:38:10;;;;;;;1.25;0.50;;;;;;;;;;8321676;28;20086;-60
2022/09/16 15:42:15;;;;;;;1.33;0.75;;;;;;;;;;8321678;28;20024;-60
2022/09/16 15:46:19;;;;;;;2.13;0.70;;;;;;;;;;8321572;28;20044;-58
2022/09/16 15:50:20;;;;;;;2.85;0.70;;;;;;;;;;8325392;28;20028;-60
2022/09/16 15:54:20;;;;;;;1.23;0.70;;;;;;;;;;8318005;28;20033;-59
2022/09/16 15:58:39;;;;;;;4.10;0.90;;;;;;;;;;8328409;28;20039;-60
2022/09/16 16:02:52;;;;;;;1.35;0.50;;;;;;;;;;8320211;28;20477;-60
2022/09/16 16:06:54;;;;;;;0.57;0.57;;;;;;;;;;8317466;28;20040;-60
2022/09/16 16:11:21;;;;;;;1.98;1.00;;;;;;;;;;8324268;28;20068;-60
2022/09/16 16:15:24;;;;;;;1.50;0.52;;;;;;;;;;8319049;28;20044;-60
2022/09/16 16:19:25;;;;;;;1.23;0.50;;;;;;;;;;8320800;28;20027;-59
2022/09/16 16:23:25;;;;;;;1.20;0.50;;;;;;;;;;8320430;28;20029;-60
2022/09/16 16:27:25;;;;;;;1.40;0.40;;;;;;;;;;8320111;28;20536;-60
2022/09/16 16:31:25;;;;;;;0.63;0.50;;;;;;;;;;8334406;28;20046;-59
2022/09/16 16:35:27;;;;;;;0.60;0.50;;;;;;;;;;8321231;28;20171;-60
2022/09/16 16:39:27;;;;;;;1.08;0.50;;;;;;;;;;8321931;28;20031;-60
2022/09/16 16:43:28;;;;;;;1.97;0.90;;;;;;;;;;8322810;28;20021;-59
2022/09/16 16:47:28;;;;;;;1.15;0.60;;;;;;;;;;8322523;28;20118;-59
2022/09/16 16:51:29;;;;;;;0.88;0.70;;;;;;;;;;8321177;28;20036;-58
2022/09/16 16:55:30;;;;;;;0.93;0.50;;;;;;;;;;8324164;28;21059;-58
2022/09/16 16:59:30;;;;;;;0.85;0.52;;;;;;;;;;8322248;28;20076;-59
2022/09/16 17:03:30;;;;;;;1.10;0.50;;;;;;;;;;8322736;28;20936;-60
2022/09/16 17:07:31;;;;;;;1.42;0.60;;;;;;;;;;8324482;28;20021;-58
2022/09/16 17:11:31;;;;;;;0.40;0.40;;;;;;;;;;8320172;28;20172;-59
2022/09/16 17:15:31;;;;;;;0.82;0.60;;;;;;;;;;8320946;28;20140;-60
2022/09/16 17:19:31;;;;;;;0.95;0.50;;;;;;;;;;8320882;28;20020;-59
2022/09/16 17:23:32;;;;;;;0.52;0.45;;;;;;;;;;8320440;28;20037;-59
2022/09/16 17:27:32;;;;;;;1.30;0.60;;;;;;;;;;8321543;28;20123;-58
2022/09/16 17:31:33;;;;;;;1.50;0.60;;;;;;;;;;8318893;28;20048;-58
2022/09/16 17:35:34;;;;;;;0.68;0.65;;;;;;;;;;8325664;28;20469;-58
2022/09/16 17:39:37;;;;;;;1.30;0.70;;;;;;;;;;8321036;28;20984;-59
2022/09/16 17:43:38;;;;;;;0.60;0.60;;;;;;;;;;8320077;28;20116;-60
2022/09/16 17:47:38;;;;;;;2.30;0.60;;;;;;;;;;8318384;28;20458;-57
2022/09/16 17:51:39;;;;;;;0.47;0.47;;;;;;;;;;8312780;28;20035;-59
2022/09/16 17:55:39;;;;;;;0.75;0.57;;;;;;;;;;8319098;28;20033;-59
2022/09/16 17:59:39;;;;;;;1.55;0.68;;;;;;;;;;8320556;28;20207;-60
2022/09/16 18:03:40;;;;;;;1.90;0.70;;;;;;;;;;8316489;28;20064;-58
2022/09/16 18:07:43;;;;;;;0.57;0.57;;;;;;;;;;8320068;28;20047;-59
2022/09/16 18:11:43;;;;;;;0.55;0.55;;;;;;;;;;8320727;28;20024;-58
2022/09/16 18:15:44;;;;;;;0.60;0.60;;;;;;;;;;8321044;28;21004;-57
2022/09/16 18:19:44;;;;;;;0.70;0.50;;;;;;;;;;8321679;28;20021;-58
2022/09/16 18:23:50;;;;;;;1.95;0.40;;;;;;;;;;8317347;28;20097;-58
2022/09/16 18:27:51;;;;;;;2.53;0.45;;;;;;;;;;8319082;28;20095;-59
2022/09/16 18:31:53;;;;;;;1.65;0.60;;;;;;;;;;8318403;28;20621;-57
2022/09/16 18:35:56;;;;;;;1.50;0.45;;;;;;;;;;8319117;28;20025;-57
2022/09/16 18:39:57;;;;;;;0.88;0.60;;;;;;;;;;8322288;28;20051;-57
2022/09/16 18:43:58;;;;;;;1.27;0.52;;;;;;;;;;8321315;28;20147;-57
2022/09/16 18:47:58;;;;;;;2.45;0.60;;;;;;;;;;8321433;28;20041;-58
2022/09/16 18:51:59;;;;;;;0.63;0.50;;;;;;;;;;8323822;28;20518;-59
2022/09/16 18:55:59;;;;;;;1.70;0.63;;;;;;;;;;8330448;28;21159;-57
2022/09/16 18:59:59;;;;;;;0.50;0.47;;;;;;;;;;8325355;28;20313;-58
2022/09/16 19:04:00;;;;;;;0.50;0.50;;;;;;;;;;8324756;28;20705;-59
2022/09/16 19:08:01;;;;;;;1.63;0.60;;;;;;;;;;8325323;28;20270;-57
2022/09/16 19:12:01;;;;;;;1.47;0.70;;;;;;;;;;8325614;28;20020;-57
2022/09/16 19:16:01;;;;;;;0.57;0.50;;;;;;;;;;8323604;28;20270;-57
2022/09/16 19:20:02;;;;;;;0.55;0.50;;;;;;;;;;8326625;28;20016;-58
2022/09/16 19:24:05;;;;;;;0.63;0.50;;;;;;;;;;8323683;28;20432;-57
2022/09/16 19:28:05;;;;;;;0.40;0.40;;;;;;;;;;8326253;28;20481;-57
2022/09/16 19:32:05;;;;;;;1.45;0.63;;;;;;;;;;8324230;28;20040;-57
2022/09/16 19:36:10;;;;;;;0.50;0.50;;;;;;;;;;8325751;28;20016;-58
2022/09/16 19:40:10;;;;;;;0.50;0.50;;;;;;;;;;8323490;28;21070;-58
2022/09/16 19:44:12;;;;;;;4.82;0.70;;;;;;;;;;8323971;28;20676;-57
2022/09/16 19:48:12;;;;;;;2.25;0.75;;;;;;;;;;8325693;28;20040;-59
2022/09/16 19:52:12;;;;;;;0.50;0.50;;;;;;;;;;8323970;28;20120;-57
2022/09/16 19:56:14;;;;;;;0.80;0.80;;;;;;;;;;8323379;28;20036;-57
2022/09/16 20:00:14;;;;;;;2.08;0.60;;;;;;;;;;8324701;28;21006;-57
2022/09/16 20:04:18;;;;;;;0.83;0.47;;;;;;;;;;8325614;28;20502;-58
2022/09/16 20:08:18;;;;;;;0.55;0.50;;;;;;;;;;8322977;28;20033;-57
2022/09/16 20:12:18;;;;;;;1.38;0.52;;;;;;;;;;8322941;28;20561;-57
2022/09/16 20:16:19;;;;;;;2.15;0.70;;;;;;;;;;8322932;28;20036;-57
2022/09/16 20:20:21;;;;;;;1.33;0.70;;;;;;;;;;8323793;28;20156;-57
2022/09/16 20:24:22;;;;;;;1.20;0.60;;;;;;;;;;8322268;28;20493;-57
2022/09/16 20:28:22;;;;;;;0.40;0.40;;;;;;;;;;8323560;28;20803;-60
2022/09/16 20:32:22;;;;;;;1.50;0.60;;;;;;;;;;8324459;28;20044;-57
2022/09/16 20:36:23;;;;;;;0.90;0.50;;;;;;;;;;8324104;28;20186;-59
2022/09/16 20:40:23;;;;;;;3.60;0.80;;;;;;;;;;8321085;28;20261;-58
2022/09/16 20:44:24;;;;;;;1.48;0.70;;;;;;;;;;8317516;28;20045;-57
2022/09/16 20:48:24;;;;;;;0.63;0.63;;;;;;;;;;8321018;28;20066;-58
2022/09/16 20:52:24;;;;;;;2.60;0.60;;;;;;;;;;8319683;28;20029;-58
2022/09/16 20:56:25;;;;;;;0.57;0.50;;;;;;;;;;8324036;28;20339;-58
2022/09/16 21:00:25;;;;;;;0.80;0.65;;;;;;;;;;8321358;28;20339;-58
2022/09/16 21:04:25;;;;;;;2.03;0.80;;;;;;;;;;8324144;28;20097;-58
2022/09/16 21:08:26;;;;;;;1.88;0.52;;;;;;;;;;8321562;28;20502;-58
2022/09/16 21:12:28;;;;;;;3.87;0.77;;;;;;;;;;8319143;28;20029;-58
2022/09/16 21:16:29;;;;;;;2.60;0.60;;;;;;;;;;8321027;28;20279;-58
2022/09/16 21:20:29;;;;;;;4.50;0.95;;;;;;;;;;8322163;28;20095;-58
2022/09/16 21:24:30;;;;;;;1.17;0.60;;;;;;;;;;8320806;28;20036;-58
2022/09/16 21:28:32;;;;;;;0.60;0.60;;;;;;;;;;8323794;28;20021;-59
2022/09/16 21:32:33;;;;;;;1.50;0.70;;;;;;;;;;8318763;28;20594;-58
2022/09/16 21:36:34;;;;;;;0.90;0.70;;;;;;;;;;8320197;28;20029;-58
2022/09/16 21:40:34;;;;;;;2.65;0.63;;;;;;;;;;8320173;28;20064;-58
2022/09/16 21:44:34;;;;;;;1.55;0.63;;;;;;;;;;8322498;28;20017;-57
2022/09/16 21:48:36;;;;;;;2.63;0.70;;;;;;;;;;8320643;28;20037;-57
2022/09/16 21:52:36;;;;;;;2.58;0.70;;;;;;;;;;8320393;28;20029;-57
2022/09/16 21:56:38;;;;;;;2.33;0.75;;;;;;;;;;8320143;28;20035;-57
2022/09/16 22:00:39;;;;;;;1.70;0.50;;;;;;;;;;8320224;28;20106;-57
2022/09/16 22:04:39;;;;;;;0.70;0.70;;;;;;;;;;8325334;28;20029;-59
2022/09/16 22:08:41;;;;;;;0.47;0.45;;;;;;;;;;8321732;28;20388;-57
2022/09/16 22:12:42;;;;;;;1.55;0.70;;;;;;;;;;8321279;28;20099;-57
2022/09/16 22:16:42;;;;;;;0.98;0.70;;;;;;;;;;8317201;28;20147;-57
2022/09/16 22:20:42;;;;;;;3.55;0.70;;;;;;;;;;8319792;28;20048;-57
2022/09/16 22:24:42;;;;;;;2.08;0.63;;;;;;;;;;8325860;28;20052;-57
2022/09/16 22:28:42;;;;;;;2.72;0.90;;;;;;;;;;8326467;28;20033;-57
2022/09/16 22:32:43;;;;;;;3.00;0.80;;;;;;;;;;8324501;28;20179;-57
2022/09/16 22:36:43;;;;;;;2.08;0.75;;;;;;;;;;8327616;28;20046;-57
2022/09/16 22:40:43;;;;;;;2.90;0.80;;;;;;;;;;8324573;28;20033;-57
2022/09/16 22:44:43;;;;;;;0.57;0.55;;;;;;;;;;8328289;28;20263;-57
2022/09/16 22:48:44;;;;;;;4.75;0.80;;;;;;;;;;8325325;28;20040;-57
2022/09/16 22:52:44;;;;;;;1.60;0.60;;;;;;;;;;8325987;28;20029;-58
2022/09/16 22:56:44;;;;;;;2.55;0.70;;;;;;;;;;8329772;28;20028;-57
2022/09/16 23:00:45;;;;;;;5.82;0.90;;;;;;;;;;8326011;28;20044;-57
2022/09/16 23:04:45;;;;;;;4.40;0.93;;;;;;;;;;8325464;28;20139;-57
2022/09/16 23:08:45;;;;;;;1.88;0.80;;;;;;;;;;8329432;28;20274;-57
2022/09/16 23:12:46;;;;;;;2.95;0.90;;;;;;;;;;8324017;28;20041;-57
2022/09/16 23:16:46;;;;;;;1.73;0.80;;;;;;;;;;8322040;28;20032;-58
2022/09/16 23:20:59;;;;;;;1.45;0.73;;;;;;;;;;8324193;28;20040;-57
2022/09/16 23:24:59;;;;;;;3.20;1.00;;;;;;;;;;8328355;28;20033;-57
2022/09/16 23:29:00;;;;;;;3.88;1.00;;;;;;;;;;8326246;28;20496;-57
2022/09/16 23:33:01;;;;;;;3.15;1.10;;;;;;;;;;8321679;28;20494;-57
2022/09/16 23:37:01;;;;;;;2.60;0.70;;;;;;;;;;8325109;28;20018;-57
2022/09/16 23:41:02;;;;;;;3.97;0.90;;;;;;;;;;8327152;28;20036;-57
2022/09/16 23:45:03;;;;;;;0.75;0.70;;;;;;;;;;8324731;28;20026;-57
2022/09/16 23:49:03;;;;;;;3.60;0.90;;;;;;;;;;8325617;28;20476;-58
2022/09/16 23:53:03;;;;;;;2.55;1.00;;;;;;;;;;8325622;28;20023;-57
2022/09/16 23:57:04;;;;;;;4.15;1.02;;;;;;;;;;8327307;28;20446;-57
